Impacts METAR Board
IDs:

KLAX - Los Angeles Intl, CA, US

Updated at: 0900 UTC 25 Mar 2019
Potential Impact None Slight Moderate High
Time 24/21Z 24/22Z 24/23Z 25/00Z 25/01Z 25/02Z 25/03Z 25/04Z 25/05Z 25/06Z 25/07Z 25/08Z 25/09Z
Temp65 65 64 63 62 60 59 58 58 57 57 57 57
Dewpt52 52 52 51 52 52 52 52 52 52 51 53 53
Altim30.17 30.16 30.15 30.13 30.13 30.13 30.14 30.16 30.17 30.16 30.16 30.16 30.14
VIS10 10 10 10 10 10 10 10 10 10 10 10 10
CIG-- -- -- -- -- -- -- -- -- -- -- -- --
CoverFEWFEWFEWFEWCLRCLRFEWCLRCLRCLRFEWFEWFEW
FltCatVFRVFRVFRVFRVFRVFRVFRVFRVFRVFRVFRVFRVFR
WX--------------------------
WDir2502602702702602602502502602402502600
WSpd12 10 10 11 10 10 10 6 5 5 6 6 0
WGst-- -- -- -- -- -- -- -- -- -- -- -- --
Raw hourly METARs
KLAX 242053Z 25012KT 10SM FEW033 18/11 A3017 RMK AO2 SLP217 T01830111 56008
KLAX 242153Z 26010KT 10SM FEW033 18/11 A3016 RMK AO2 SLP211 T01830111
KLAX 242253Z 27010KT 10SM FEW030 18/11 A3015 RMK AO2 SLP208 T01780111
KLAX 242353Z 27011KT 10SM FEW020 FEW080 17/11 A3013 RMK AO2 SLP203 T01720106 10189 20167 56014
KLAX 250053Z 26010KT 10SM CLR 17/11 A3013 RMK AO2 SLP202 T01670111
KLAX 250153Z 26010KT 10SM CLR 16/11 A3013 RMK AO2 SLP203 T01560111
KLAX 250253Z 25010KT 10SM FEW250 15/11 A3014 RMK AO2 SLP206 T01500111 53002
KLAX 250353Z 25006KT 10SM CLR 14/11 A3016 RMK AO2 SLP213 T01440111
KLAX 250453Z 26005KT 10SM CLR 14/11 A3017 RMK AO2 SLP215 T01440111
KLAX 250553Z 24005KT 10SM CLR 14/11 A3016 RMK AO2 SLP212 T01390111 10178 20139 50007
KLAX 250653Z 25006KT 10SM FEW012 14/11 A3016 RMK AO2 SLP210 T01390106
KLAX 250753Z 26006KT 10SM FEW012 14/12 A3016 RMK AO2 SLP209 T01390117 401890106
KLAX 250853Z 00000KT 10SM FEW012 14/12 A3014 RMK AO2 SLP205 T01390117 58007



Page loaded:  09:39 UTC  |   02:39 AM Pacific  |   03:39 AM Mountain  |   04:39 AM Central  |   05:39 AM Eastern

 

ADVISORIES

FORECASTS

FORECASTS

OBSERVATIONS

USER TOOLS

ABOUT US